Time;durP1;ratioP1;P1;durP2;ratioP2;P2;SDS_P1;SDS_P2;PMS_P1;PMS_P2;Temp;Humidity;BMP_temperature;BMP_pressure;BME280_temperature;BME280_humidity;BME280_pressure;Samples;Min_cycle;Max_cycle;Signal;HPM_P1;HPM_P2
2022/10/28 00:00:21;;;;;;;11.40;8.55;;;15.40;47.80;;;;;;5035295;28;20222;-45
2022/10/28 00:02:47;;;;;;;13.53;8.83;;;15.40;47.90;;;;;;5034766;28;20201;-45
2022/10/28 00:05:13;;;;;;;19.33;9.53;;;15.40;47.90;;;;;;5035172;28;20504;-44
2022/10/28 00:07:39;;;;;;;18.10;9.80;;;15.40;47.80;;;;;;5033869;28;20192;-43
2022/10/28 00:10:05;;;;;;;13.27;8.47;;;15.40;47.50;;;;;;5034844;28;20459;-44
2022/10/28 00:12:35;;;;;;;12.80;8.98;;;15.40;47.50;;;;;;5034783;28;20232;-44
2022/10/28 00:15:01;;;;;;;14.75;10.00;;;15.30;47.80;;;;;;5034787;28;20585;-44
2022/10/28 00:17:26;;;;;;;13.73;8.97;;;15.30;48.10;;;;;;5033998;28;20198;-44
2022/10/28 00:19:52;;;;;;;11.27;8.97;;;15.30;48.10;;;;;;5034738;28;20478;-43
2022/10/28 00:22:18;;;;;;;13.80;9.47;;;15.30;48.20;;;;;;5033590;28;20699;-45
2022/10/28 00:24:43;;;;;;;15.10;9.60;;;15.30;47.90;;;;;;5035061;28;20174;-45
2022/10/28 00:27:09;;;;;;;13.13;9.90;;;15.20;48.00;;;;;;5033984;28;20197;-45
2022/10/28 00:29:35;;;;;;;15.00;11.83;;;15.20;48.00;;;;;;5034819;28;20237;-45
2022/10/28 00:32:01;;;;;;;15.87;11.50;;;15.10;48.60;;;;;;5034621;28;20174;-44
2022/10/28 00:34:26;;;;;;;17.40;9.20;;;15.00;48.90;;;;;;5034761;28;20171;-44
2022/10/28 00:36:52;;;;;;;13.17;10.63;;;15.10;48.90;;;;;;5033684;28;20210;-43
2022/10/28 00:39:22;;;;;;;12.93;10.73;;;15.10;48.90;;;;;;5034500;28;20166;-44
2022/10/28 00:42:02;;;;;;;16.60;9.88;;;15.20;48.60;;;;;;5034143;28;20178;-43
2022/10/28 00:44:53;;;;;;;15.52;10.75;;;16.20;49.00;;;;;;5034289;28;20221;-45
2022/10/28 00:47:41;;;;;;;16.38;11.45;;;15.20;48.40;;;;;;5034003;28;20206;-44
2022/10/28 00:50:30;;;;;;;11.18;9.13;;;15.20;48.40;;;;;;5034328;28;20178;-44
2022/10/28 00:53:03;;;;;;;12.88;9.88;;;15.20;48.60;;;;;;5034420;28;20178;-44
2022/10/28 00:55:30;;;;;;;12.30;9.65;;;15.20;49.00;;;;;;5036214;28;20178;-43
2022/10/28 00:57:58;;;;;;;13.02;9.95;;;15.20;49.10;;;;;;5039411;28;20174;-44
2022/10/28 01:00:24;;;;;;;11.45;10.10;;;15.20;49.10;;;;;;5039493;28;20204;-43
2022/10/28 01:02:50;;;;;;;14.82;11.55;;;15.20;49.10;;;;;;5039235;28;20194;-43
2022/10/28 01:05:21;;;;;;;13.70;10.82;;;15.30;49.00;;;;;;5038896;28;20170;-44
2022/10/28 01:07:48;;;;;;;13.07;11.68;;;15.30;48.90;;;;;;5038297;28;20186;-44
2022/10/28 01:10:14;;;;;;;17.05;10.02;;;15.30;49.00;;;;;;5034332;28;20186;-44
2022/10/28 01:12:55;;;;;;;14.07;11.15;;;15.30;49.10;;;;;;5033964;28;20249;-44
2022/10/28 01:16:01;;;;;;;15.70;11.02;;;15.40;49.00;;;;;;5033983;28;20193;-43
2022/10/28 01:18:26;;;;;;;12.65;9.63;;;15.40;49.00;;;;;;5033134;28;20186;-45
2022/10/28 01:21:04;;;;;;;14.00;11.17;;;15.40;49.20;;;;;;5033699;28;20189;-44
2022/10/28 01:23:46;;;;;;;14.13;11.10;;;15.40;49.30;;;;;;5033854;28;20339;-44
2022/10/28 01:26:27;;;;;;;12.32;10.30;;;15.40;49.40;;;;;;5033869;28;20601;-44
2022/10/28 01:29:31;;;;;;;17.05;12.77;;;15.50;49.50;;;;;;5038641;28;20184;-44
2022/10/28 01:32:03;;;;;;;15.15;13.75;;;15.50;49.60;;;;;;5037990;28;20581;-43
2022/10/28 01:34:34;;;;;;;13.32;12.02;;;15.50;49.50;;;;;;5038639;28;20166;-44
2022/10/28 01:37:28;;;;;;;16.70;14.45;;;15.50;49.50;;;;;;5038787;28;20202;-43
2022/10/28 01:40:12;;;;;;;16.55;13.35;;;15.50;49.60;;;;;;5039494;28;20174;-44
2022/10/28 01:42:56;;;;;;;17.30;14.40;;;15.50;49.60;;;;;;5033099;28;20208;-43
2022/10/28 01:45:32;;;;;;;18.88;16.50;;;15.50;49.70;;;;;;5033268;28;20167;-44
2022/10/28 01:48:01;;;;;;;16.10;13.98;;;15.50;49.80;;;;;;5033155;28;20177;-45
2022/10/28 01:51:02;;;;;;;17.00;14.48;;;15.50;49.80;;;;;;5032879;28;20162;-44
2022/10/28 01:53:32;;;;;;;18.52;16.00;;;15.50;49.90;;;;;;5032154;28;20546;-45
2022/10/28 01:56:02;;;;;;;24.38;18.77;;;15.50;50.10;;;;;;5032462;28;20261;-44
2022/10/28 01:58:30;;;;;;;23.58;20.73;;;15.60;50.20;;;;;;5032801;28;20201;-44
2022/10/28 02:00:59;;;;;;;23.67;20.35;;;15.60;50.20;;;;;;5032860;28;20181;-45
2022/10/28 02:03:26;;;;;;;27.15;24.00;;;15.60;50.40;;;;;;5032571;28;20861;-43
2022/10/28 02:05:58;;;;;;;25.85;23.23;;;15.70;50.20;;;;;;5032248;28;20205;-45
2022/10/28 02:09:00;;;;;;;26.23;23.25;;;15.80;50.10;;;;;;5032713;28;20166;-45
2022/10/28 02:11:41;;;;;;;21.52;19.30;;;15.80;49.90;;;;;;5032539;28;20639;-44
2022/10/28 02:14:16;;;;;;;22.13;19.60;;;15.80;50.10;;;;;;5032427;28;20213;-45
2022/10/28 02:17:08;;;;;;;21.25;18.95;;;15.70;50.60;;;;;;5031817;28;20728;-44
2022/10/28 02:19:38;;;;;;;23.73;21.33;;;15.80;50.60;;;;;;5032518;28;20204;-43
2022/10/28 02:22:29;;;;;;;25.40;22.33;;;15.70;50.80;;;;;;5014999;28;20178;-45
2022/10/28 02:25:23;;;;;;;23.40;19.80;;;15.80;50.40;;;;;;5032681;28;20167;-44
2022/10/28 02:28:06;;;;;;;25.33;22.58;;;15.90;50.40;;;;;;5031761;28;20541;-43
2022/10/28 02:30:56;;;;;;;25.95;22.42;;;15.90;50.30;;;;;;5032286;28;20169;-44
2022/10/28 02:33:28;;;;;;;23.40;20.38;;;15.90;50.30;;;;;;5032219;28;20182;-44
2022/10/28 02:36:02;;;;;;;22.38;20.08;;;15.90;50.30;;;;;;5031689;28;21915;-44
2022/10/28 02:38:36;;;;;;;21.40;17.15;;;15.90;50.30;;;;;;5032385;28;20159;-45
2022/10/28 02:41:09;;;;;;;21.02;18.92;;;15.90;50.50;;;;;;5032128;28;20529;-42
2022/10/28 02:43:37;;;;;;;20.15;17.48;;;15.90;50.50;;;;;;5031744;28;20661;-44
2022/10/28 02:46:04;;;;;;;24.17;20.80;;;16.00;50.30;;;;;;5031354;28;20205;-43
2022/10/28 02:48:56;;;;;;;23.67;20.52;;;16.00;50.30;;;;;;5031979;28;20692;-43
2022/10/28 02:51:57;;;;;;;19.20;16.38;;;16.00;50.50;;;;;;5032132;28;20173;-45
2022/10/28 02:54:38;;;;;;;20.90;17.20;;;16.00;50.40;;;;;;5010767;28;20560;-45
2022/10/28 02:57:11;;;;;;;18.40;16.20;;;16.00;50.80;;;;;;5031440;28;20193;-44
2022/10/28 02:59:37;;;;;;;18.00;15.15;;;16.00;50.60;;;;;;5031864;28;20216;-43
2022/10/28 03:02:04;;;;;;;19.93;15.97;;;16.00;50.90;;;;;;5031890;28;20205;-44
2022/10/28 03:04:30;;;;;;;15.45;13.85;;;16.00;50.70;;;;;;5032291;28;20173;-43
2022/10/28 03:06:55;;;;;;;18.70;15.30;;;16.10;51.10;;;;;;5031245;28;20202;-44
2022/10/28 03:09:21;;;;;;;17.10;15.17;;;16.10;51.40;;;;;;5031861;28;20436;-45
2022/10/28 03:11:47;;;;;;;19.00;14.67;;;16.20;51.80;;;;;;5032208;28;20166;-43
2022/10/28 03:14:13;;;;;;;23.30;15.43;;;16.20;51.50;;;;;;5032004;28;20208;-44
2022/10/28 03:16:38;;;;;;;20.77;15.40;;;16.30;52.10;;;;;;5031465;28;20194;-45
2022/10/28 03:19:04;;;;;;;20.60;16.50;;;16.40;52.90;;;;;;5031766;28;20174;-45
2022/10/28 03:21:30;;;;;;;28.10;16.93;;;16.50;53.00;;;;;;5031956;28;20534;-45
2022/10/28 03:23:55;;;;;;;26.27;18.37;;;16.50;52.90;;;;;;5031632;28;20214;-45
2022/10/28 03:26:21;;;;;;;24.53;17.77;;;16.70;53.80;;;;;;5031173;28;20189;-44
2022/10/28 03:28:47;;;;;;;26.73;19.63;;;16.80;54.40;;;;;;5031811;28;20604;-44
2022/10/28 03:31:14;;;;;;;30.17;19.37;;;16.90;53.90;;;;;;5031844;28;20839;-45
2022/10/28 03:33:39;;;;;;;27.95;19.65;;;17.00;53.90;;;;;;5031601;28;20360;-45
2022/10/28 03:36:06;;;;;;;24.30;17.70;;;17.10;53.70;;;;;;5030828;28;20312;-44
2022/10/28 03:38:31;;;;;;;23.77;18.83;;;17.20;53.50;;;;;;5031666;28;20392;-44
2022/10/28 03:40:57;;;;;;;30.50;17.90;;;17.30;53.40;;;;;;5013982;28;20174;-45
2022/10/28 03:43:23;;;;;;;24.37;17.50;;;17.30;53.50;;;;;;5031524;28;20293;-43
2022/10/28 03:45:49;;;;;;;21.83;18.07;;;17.20;53.50;;;;;;5030838;28;20209;-45
2022/10/28 03:48:14;;;;;;;24.93;17.90;;;17.40;53.40;;;;;;5031731;28;20419;-44
2022/10/28 03:50:40;;;;;;;23.30;15.80;;;17.40;53.20;;;;;;5031522;28;20638;-43
2022/10/28 03:53:06;;;;;;;21.63;16.20;;;17.40;53.20;;;;;;5031537;28;20415;-44
2022/10/28 03:55:32;;;;;;;26.95;17.73;;;17.50;53.30;;;;;;5032031;28;20185;-45
2022/10/28 03:58:01;;;;;;;24.33;18.70;;;17.50;53.20;;;;;;5035288;28;20181;-45
2022/10/28 04:00:27;;;;;;;22.33;17.25;;;17.50;53.20;;;;;;5035066;28;20257;-45
2022/10/28 04:02:53;;;;;;;21.38;18.27;;;17.50;53.00;;;;;;5035085;28;20288;-45
2022/10/28 04:05:19;;;;;;;25.60;18.50;;;17.50;52.90;;;;;;5035036;28;20574;-44
2022/10/28 04:07:46;;;;;;;26.00;17.60;;;17.50;52.80;;;;;;5034546;28;20190;-45
2022/10/28 04:10:12;;;;;;;22.65;16.52;;;17.50;53.10;;;;;;5034891;28;20189;-43
2022/10/28 04:12:37;;;;;;;30.07;19.33;;;17.50;53.10;;;;;;5035172;28;20177;-45
2022/10/28 04:15:04;;;;;;;26.07;17.30;;;17.50;53.10;;;;;;5034708;28;20804;-45
2022/10/28 04:17:30;;;;;;;24.85;19.00;;;17.50;53.20;;;;;;5034041;28;20677;-44
2022/10/28 04:19:55;;;;;;;28.50;17.57;;;17.60;53.30;;;;;;5034975;28;20186;-43
2022/10/28 04:22:21;;;;;;;21.37;17.17;;;17.60;53.20;;;;;;5034752;28;20550;-45
2022/10/28 04:24:47;;;;;;;25.73;17.47;;;17.60;53.10;;;;;;5034613;28;21012;-43
2022/10/28 04:27:12;;;;;;;23.87;19.63;;;17.60;53.00;;;;;;5033998;28;20193;-46
2022/10/28 04:29:38;;;;;;;25.40;18.83;;;17.60;53.50;;;;;;5034561;28;20162;-44
2022/10/28 04:32:04;;;;;;;28.23;18.87;;;17.60;53.30;;;;;;5034689;28;20246;-43
2022/10/28 04:34:30;;;;;;;37.83;19.53;;;17.60;53.50;;;;;;5034587;28;20166;-45
2022/10/28 04:36:56;;;;;;;28.43;19.70;;;17.60;53.30;;;;;;5033705;28;20491;-43
2022/10/28 04:39:22;;;;;;;26.27;19.48;;;17.70;53.30;;;;;;5034317;28;20733;-44
2022/10/28 04:41:47;;;;;;;23.77;19.27;;;17.70;53.40;;;;;;5034256;28;20265;-45
2022/10/28 04:44:13;;;;;;;29.50;20.73;;;17.70;53.70;;;;;;5034141;28;20202;-44
2022/10/28 04:46:39;;;;;;;23.83;18.20;;;17.70;53.60;;;;;;5033732;28;20193;-45
2022/10/28 04:49:05;;;;;;;25.87;17.13;;;17.70;53.50;;;;;;5034388;28;20544;-44
2022/10/28 04:51:31;;;;;;;24.67;17.57;;;17.70;53.30;;;;;;5034114;28;20428;-45
2022/10/28 04:53:56;;;;;;;27.37;18.33;;;17.70;53.30;;;;;;5034269;28;20511;-43
2022/10/28 04:56:22;;;;;;;29.23;18.93;;;17.70;53.40;;;;;;5033240;28;20198;-44
2022/10/28 04:58:48;;;;;;;30.63;18.93;;;17.70;53.30;;;;;;5033999;28;20174;-44
2022/10/28 05:01:13;;;;;;;22.77;16.83;;;17.70;53.10;;;;;;5033837;28;20178;-44
2022/10/28 05:03:39;;;;;;;28.83;17.87;;;17.70;53.20;;;;;;5033774;28;20214;-44
2022/10/28 05:06:05;;;;;;;30.90;17.87;;;17.70;53.40;;;;;;5033993;28;20247;-44
2022/10/28 05:08:31;;;;;;;25.47;16.90;;;17.70;53.50;;;;;;5033514;28;20174;-44
2022/10/28 05:10:56;;;;;;;31.77;18.30;;;17.60;53.20;;;;;;5034367;28;20413;-44
2022/10/28 05:13:22;;;;;;;23.50;16.77;;;17.60;53.60;;;;;;5034275;28;20633;-43
2022/10/28 05:15:49;;;;;;;27.47;19.27;;;17.60;53.60;;;;;;5034033;28;20178;-43
2022/10/28 05:18:14;;;;;;;20.90;16.48;;;17.70;53.60;;;;;;5037556;28;20257;-43
2022/10/28 05:20:41;;;;;;;24.33;19.40;;;17.70;53.40;;;;;;5038611;28;20197;-44
2022/10/28 05:23:06;;;;;;;23.80;17.90;;;17.70;53.30;;;;;;5038336;28;20213;-44
2022/10/28 05:25:32;;;;;;;26.23;17.67;;;17.70;53.10;;;;;;5038001;28;20193;-43
2022/10/28 05:28:01;;;;;;;24.60;16.93;;;18.30;53.50;;;;;;5038487;28;20174;-43
2022/10/28 05:30:27;;;;;;;24.52;16.63;;;17.70;53.00;;;;;;5038054;28;20253;-43
2022/10/28 05:33:03;;;;;;;21.40;16.75;;;17.80;53.00;;;;;;5034256;28;20174;-44
2022/10/28 05:35:29;;;;;;;23.50;19.00;;;17.80;52.90;;;;;;5033344;28;20173;-45
2022/10/28 05:37:56;;;;;;;25.15;18.85;;;17.80;52.90;;;;;;5032796;28;20197;-45
2022/10/28 05:40:22;;;;;;;27.20;16.80;;;16.50;52.30;;;;;;5033324;28;20178;-43
2022/10/28 05:42:48;;;;;;;20.80;17.52;;;17.70;52.80;;;;;;5032983;28;20249;-43
2022/10/28 05:45:14;;;;;;;22.33;17.40;;;17.70;53.10;;;;;;5033161;28;20201;-43
2022/10/28 05:47:45;;;;;;;22.87;16.87;;;17.70;52.90;;;;;;5032529;28;20820;-44
2022/10/28 05:50:12;;;;;;;24.13;17.08;;;17.70;53.00;;;;;;5033077;28;20841;-45
2022/10/28 05:52:38;;;;;;;27.35;18.05;;;17.70;52.90;;;;;;5032754;28;20577;-44
2022/10/28 05:55:04;;;;;;;23.53;16.93;;;17.70;52.70;;;;;;5033040;28;20170;-44
2022/10/28 05:57:34;;;;;;;28.50;16.80;;;17.70;52.70;;;;;;5032583;28;20428;-43
2022/10/28 05:59:59;;;;;;;22.23;17.10;;;17.70;52.70;;;;;;5032869;28;20174;-43
2022/10/28 06:02:25;;;;;;;21.13;17.17;;;17.70;52.60;;;;;;5032710;28;20547;-44
2022/10/28 06:04:51;;;;;;;21.83;17.20;;;17.70;52.60;;;;;;5032666;28;20158;-45
2022/10/28 06:07:16;;;;;;;25.60;17.83;;;17.70;52.60;;;;;;5032357;28;20194;-45
2022/10/28 06:09:42;;;;;;;19.10;16.57;;;17.70;52.70;;;;;;5032836;28;20686;-45
2022/10/28 06:12:08;;;;;;;21.00;16.10;;;17.60;52.60;;;;;;5032562;28;20220;-45
2022/10/28 06:14:34;;;;;;;22.13;17.47;;;17.70;52.60;;;;;;5032689;28;20201;-44
2022/10/28 06:16:59;;;;;;;19.77;15.70;;;17.70;52.70;;;;;;5032088;28;20658;-45
2022/10/28 06:19:25;;;;;;;21.03;15.23;;;17.70;52.70;;;;;;5031691;28;20654;-45
2022/10/28 06:21:51;;;;;;;21.37;15.40;;;17.70;52.70;;;;;;5032287;28;20173;-43
2022/10/28 06:24:16;;;;;;;22.87;16.07;;;17.70;52.70;;;;;;5032618;28;20198;-45
2022/10/28 06:26:42;;;;;;;20.80;16.80;;;17.70;52.70;;;;;;5031967;28;20193;-45
2022/10/28 06:29:11;;;;;;;18.80;15.50;;;17.70;52.90;;;;;;5032426;28;20174;-43
2022/10/28 06:31:41;;;;;;;21.00;15.20;;;17.70;52.80;;;;;;5032539;28;20400;-45
2022/10/28 06:34:11;;;;;;;25.67;15.27;;;17.80;52.60;;;;;;5032199;28;20185;-45
2022/10/28 06:36:37;;;;;;;18.42;15.30;;;17.70;52.70;;;;;;5031463;28;20205;-44
2022/10/28 06:39:04;;;;;;;17.27;13.85;;;17.80;52.70;;;;;;5032126;28;20177;-44
2022/10/28 06:41:29;;;;;;;20.60;16.35;;;17.80;52.60;;;;;;5032096;28;20653;-44
2022/10/28 06:43:55;;;;;;;20.60;16.50;;;17.80;52.60;;;;;;5031873;28;20240;-44
2022/10/28 06:46:21;;;;;;;21.10;16.17;;;17.70;53.20;;;;;;5031424;28;20186;-43
2022/10/28 06:48:46;;;;;;;18.73;15.03;;;17.70;53.00;;;;;;5032003;28;20193;-45
2022/10/28 06:51:12;;;;;;;23.10;16.20;;;17.80;52.90;;;;;;5032059;28;20201;-42
2022/10/28 06:53:38;;;;;;;20.87;15.60;;;17.90;52.80;;;;;;5032168;28;20404;-45
2022/10/28 06:56:04;;;;;;;17.77;14.73;;;17.90;52.70;;;;;;5031438;28;20948;-44
2022/10/28 06:58:30;;;;;;;18.00;12.43;;;18.10;52.60;;;;;;5031782;28;20646;-45
2022/10/28 07:00:56;;;;;;;17.20;13.67;;;18.10;52.40;;;;;;5032037;28;20178;-45
2022/10/28 07:03:21;;;;;;;21.67;15.20;;;18.20;52.20;;;;;;5032141;28;20242;-45
2022/10/28 07:05:49;;;;;;;16.80;13.13;;;18.30;52.10;;;;;;5031148;28;20565;-45
2022/10/28 07:08:15;;;;;;;15.02;12.43;;;18.30;52.00;;;;;;5032166;28;20511;-44
2022/10/28 07:10:41;;;;;;;16.90;11.52;;;18.40;52.00;;;;;;5032008;28;20174;-43
2022/10/28 07:13:07;;;;;;;15.47;12.77;;;18.50;52.10;;;;;;5031731;28;20729;-44
2022/10/28 07:15:33;;;;;;;22.13;14.77;;;18.80;51.90;;;;;;5013938;28;20178;-44
2022/10/28 07:17:58;;;;;;;16.53;12.30;;;19.00;51.40;;;;;;5031964;28;20178;-45
2022/10/28 07:20:26;;;;;;;17.33;11.10;;;19.30;51.00;;;;;;5031613;28;20437;-45
2022/10/28 07:22:59;;;;;;;14.13;11.82;;;19.50;50.60;;;;;;5031600;28;20770;-45
2022/10/28 07:25:28;;;;;;;17.50;12.50;;;19.60;49.90;;;;;;5031617;28;20249;-44
2022/10/28 07:27:56;;;;;;;17.30;12.27;;;19.60;49.40;;;;;;5031291;28;20190;-45
2022/10/28 07:30:21;;;;;;;16.35;12.52;;;19.70;50.30;;;;;;5032724;28;20253;-44
2022/10/28 07:32:47;;;;;;;12.17;10.67;;;19.70;49.20;;;;;;5035681;28;20205;-44
2022/10/28 07:35:13;;;;;;;14.57;11.27;;;19.80;49.40;;;;;;5035667;28;20174;-45
2022/10/28 07:37:39;;;;;;;20.47;11.90;;;19.80;49.00;;;;;;5034670;28;20960;-45
2022/10/28 07:40:05;;;;;;;15.33;12.13;;;19.90;49.20;;;;;;5035345;28;20182;-43
2022/10/28 07:42:33;;;;;;;15.07;11.10;;;19.90;48.80;;;;;;5035179;28;20197;-44
2022/10/28 07:44:58;;;;;;;15.93;14.27;;;20.30;49.00;;;;;;5041940;23;20225;-45
2022/10/28 07:47:24;;;;;;;13.27;9.97;;;20.80;48.40;;;;;;5034562;28;20690;-45
2022/10/28 07:49:50;;;;;;;17.97;12.37;;;21.40;47.10;;;;;;5035143;28;20212;-44
2022/10/28 07:52:18;;;;;;;15.30;11.17;;;21.90;46.20;;;;;;5017557;28;20249;-46
2022/10/28 07:54:43;;;;;;;14.10;12.13;;;22.10;45.40;;;;;;5035028;28;20416;-44
2022/10/28 07:57:09;;;;;;;12.90;10.63;;;22.30;44.20;;;;;;5034574;28;20398;-45
2022/10/28 07:59:35;;;;;;;14.73;11.70;;;22.30;43.20;;;;;;5034978;28;20174;-45
2022/10/28 08:02:00;;;;;;;13.30;10.40;;;22.20;44.40;;;;;;5034998;28;20192;-45
2022/10/28 08:04:29;;;;;;;15.73;11.07;;;22.30;43.00;;;;;;5034817;28;20213;-45
2022/10/28 08:06:55;;;;;;;16.83;11.33;;;22.20;42.80;;;;;;5034356;28;20166;-46
2022/10/28 08:09:20;;;;;;;14.97;11.27;;;22.30;43.30;;;;;;5034841;28;20957;-44
2022/10/28 08:11:46;;;;;;;11.90;9.80;;;22.40;43.70;;;;;;5034811;28;20198;-46
2022/10/28 08:14:12;;;;;;;21.73;10.30;;;22.40;42.80;;;;;;5034777;28;20197;-46
2022/10/28 08:16:37;;;;;;;14.53;11.90;;;22.40;42.90;;;;;;5034171;28;20579;-45
2022/10/28 08:19:03;;;;;;;12.87;10.37;;;22.30;41.60;;;;;;5034897;28;20182;-46
2022/10/28 08:21:29;;;;;;;13.07;9.80;;;22.10;42.80;;;;;;5034666;28;20209;-46
2022/10/28 08:23:55;;;;;;;12.60;10.20;;;22.10;43.10;;;;;;5034418;28;20221;-45
2022/10/28 08:26:20;;;;;;;10.90;9.73;;;22.20;43.30;;;;;;5034112;28;20170;-46
2022/10/28 08:28:46;;;;;;;12.03;10.00;;;22.40;43.40;;;;;;5034429;28;20174;-46
2022/10/28 08:31:12;;;;;;;11.67;10.17;;;22.70;44.50;;;;;;5034362;28;20409;-46
2022/10/28 08:33:44;;;;;;;12.50;10.50;;;22.90;42.70;;;;;;5034199;28;20625;-46
2022/10/28 08:36:14;;;;;;;10.97;9.10;;;23.10;42.10;;;;;;5033921;28;20421;-45
2022/10/28 08:38:45;;;;;;;11.50;9.10;;;22.90;41.80;;;;;;5034529;28;20470;-46
2022/10/28 08:41:32;;;;;;;12.40;9.57;;;22.90;42.00;;;;;;5034258;28;20404;-46
2022/10/28 08:44:13;;;;;;;12.93;9.47;;;22.80;42.00;;;;;;5033507;28;20554;-46
2022/10/28 08:47:07;;;;;;;14.90;9.30;;;22.80;42.10;;;;;;5033597;28;20419;-46
2022/10/28 08:49:38;;;;;;;14.50;8.80;;;22.80;42.10;;;;;;5034101;28;20865;-45
2022/10/28 08:52:19;;;;;;;8.80;7.67;;;22.70;42.80;;;;;;5034060;28;20460;-46
2022/10/28 08:55:00;;;;;;;13.00;10.20;;;22.60;41.90;;;;;;5034135;28;20768;-45
2022/10/28 08:57:47;;;;;;;12.93;8.93;;;22.40;42.30;;;;;;5033329;28;20408;-46
2022/10/28 09:00:33;;;;;;;10.43;7.80;;;22.30;42.70;;;;;;5033892;28;20421;-47
2022/10/28 09:03:22;;;;;;;14.30;9.53;;;22.40;43.10;;;;;;5033572;28;20452;-45
2022/10/28 09:05:52;;;;;;;10.30;8.70;;;22.50;42.90;;;;;;5033114;28;20977;-46
2022/10/28 09:08:21;;;;;;;14.57;10.63;;;22.60;43.40;;;;;;5033834;28;20428;-44
2022/10/28 09:11:22;;;;;;;12.40;8.87;;;22.70;43.50;;;;;;5033513;28;20408;-45
2022/10/28 09:14:12;;;;;;;9.60;8.50;;;22.70;41.90;;;;;;5033647;28;20527;-45
2022/10/28 09:16:44;;;;;;;11.33;8.50;;;22.60;42.70;;;;;;5032937;28;20412;-46
2022/10/28 09:19:29;;;;;;;13.47;8.43;;;22.50;42.80;;;;;;5033451;28;20414;-46
2022/10/28 09:22:21;;;;;;;13.70;9.50;;;22.50;42.60;;;;;;5033456;28;20385;-45
2022/10/28 09:25:16;;;;;;;12.20;9.07;;;22.50;43.20;;;;;;5033588;28;20441;-47
2022/10/28 09:28:24;;;;;;;11.70;8.37;;;22.70;42.70;;;;;;5032957;28;20395;-45
2022/10/28 09:31:17;;;;;;;10.73;7.93;;;22.60;42.50;;;;;;5033235;28;20876;-46
2022/10/28 09:33:51;;;;;;;8.50;7.37;;;22.70;42.80;;;;;;5033182;28;20468;-45
2022/10/28 09:36:48;;;;;;;11.83;9.27;;;22.80;42.30;;;;;;5032656;28;20396;-45
2022/10/28 09:39:23;;;;;;;10.33;8.20;;;23.00;43.00;;;;;;4998606;28;20419;-46
2022/10/28 09:41:50;;;;;;;10.00;7.80;;;23.20;42.60;;;;;;5033095;28;20412;-46
2022/10/28 09:44:47;;;;;;;11.20;8.23;;;23.30;42.30;;;;;;5032743;28;20475;-46
2022/10/28 09:47:21;;;;;;;9.83;7.27;;;23.50;42.60;;;;;;5032361;28;20786;-45
2022/10/28 09:49:48;;;;;;;10.70;8.40;;;23.50;40.60;;;;;;5033042;28;20381;-45
2022/10/28 09:52:33;;;;;;;9.53;8.07;;;23.40;41.20;;;;;;5032961;28;20400;-45
2022/10/28 09:55:11;;;;;;;10.30;8.63;;;23.30;40.30;;;;;;5032563;28;20424;-44
2022/10/28 09:57:37;;;;;;;12.03;8.10;;;23.20;40.80;;;;;;5032182;28;20409;-44
2022/10/28 10:00:03;;;;;;;9.00;8.10;;;23.00;41.40;;;;;;5033083;28;20555;-45
2022/10/28 10:02:31;;;;;;;9.23;7.50;;;22.90;41.70;;;;;;5032634;28;20684;-45
2022/10/28 10:04:58;;;;;;;10.83;7.93;;;22.80;42.40;;;;;;5032649;28;20510;-44
2022/10/28 10:07:35;;;;;;;11.50;8.93;;;22.90;41.50;;;;;;5031712;28;20409;-42
2022/10/28 10:10:11;;;;;;;11.60;7.77;;;22.90;42.00;;;;;;5032563;28;20396;-43
2022/10/28 10:12:38;;;;;;;11.13;8.07;;;23.00;41.80;;;;;;5032799;28;20399;-46
2022/10/28 10:15:06;;;;;;;10.10;7.87;;;23.00;41.30;;;;;;5032373;28;20940;-44
2022/10/28 10:17:40;;;;;;;10.67;8.53;;;23.10;41.70;;;;;;5030558;28;20416;-45
2022/10/28 10:20:12;;;;;;;8.23;7.13;;;23.20;42.30;;;;;;5032663;28;20435;-45
2022/10/28 10:22:41;;;;;;;9.20;7.57;;;23.30;41.70;;;;;;5032274;28;20451;-46
2022/10/28 10:25:18;;;;;;;10.80;8.27;;;23.50;42.10;;;;;;5032447;28;20424;-44
2022/10/28 10:28:03;;;;;;;9.80;7.80;;;23.80;41.60;;;;;;5031708;28;20404;-45
2022/10/28 10:30:47;;;;;;;8.60;7.70;;;23.90;40.20;;;;;;5032336;28;20428;-45
2022/10/28 10:33:52;;;;;;;11.47;7.57;;;23.90;40.00;;;;;;5032571;28;20392;-45
2022/10/28 10:36:22;;;;;;;8.47;7.00;;;24.00;40.20;;;;;;4932080;29;20435;-45
2022/10/28 10:38:51;;;;;;;8.10;6.70;;;24.00;40.60;;;;;;4932719;29;20420;-44
2022/10/28 10:41:36;;;;;;;8.50;7.33;;;23.90;40.10;;;;;;4933056;29;20821;-44
2022/10/28 10:44:21;;;;;;;9.03;7.60;;;24.00;39.50;;;;;;4934024;29;20566;-45
2022/10/28 10:46:59;;;;;;;10.57;7.80;;;23.90;39.90;;;;;;4933590;29;20401;-45
2022/10/28 10:49:26;;;;;;;12.40;8.63;;;23.90;40.00;;;;;;4934653;29;20408;-44
2022/10/28 10:51:57;;;;;;;9.40;8.33;;;23.90;40.10;;;;;;4934737;29;20410;-45
2022/10/28 10:54:25;;;;;;;8.73;7.57;;;23.90;39.40;;;;;;4934862;29;20440;-44
2022/10/28 10:56:51;;;;;;;11.43;8.60;;;23.80;39.70;;;;;;4933909;29;20414;-46
2022/10/28 10:59:37;;;;;;;11.50;8.10;;;23.80;40.40;;;;;;4932720;29;20439;-46
2022/10/28 11:02:18;;;;;;;11.70;8.50;;;23.80;39.90;;;;;;4932226;29;20424;-46
2022/10/28 11:04:50;;;;;;;9.90;8.70;;;23.80;39.90;;;;;;4932394;29;20438;-46
2022/10/28 11:07:16;;;;;;;10.57;8.93;;;24.00;41.10;;;;;;4995116;28;20474;-44
2022/10/28 11:09:47;;;;;;;10.60;8.53;;;24.20;39.70;;;;;;5035920;28;20404;-45
2022/10/28 11:12:31;;;;;;;11.50;7.90;;;24.20;39.40;;;;;;5036166;28;20405;-44
2022/10/28 11:14:59;;;;;;;8.90;7.57;;;24.30;39.50;;;;;;5035930;28;20503;-46
2022/10/28 11:17:30;;;;;;;11.53;8.43;;;24.20;39.30;;;;;;5035148;28;20440;-45
2022/10/28 11:20:11;;;;;;;9.90;7.93;;;24.20;39.00;;;;;;5035635;28;20404;-47
2022/10/28 11:22:51;;;;;;;9.20;7.83;;;24.10;39.20;;;;;;5035497;28;20479;-45
2022/10/28 11:25:32;;;;;;;11.50;8.97;;;24.00;39.40;;;;;;5035880;28;20448;-45
2022/10/28 11:28:06;;;;;;;11.23;7.97;;;23.90;39.40;;;;;;5035474;28;20397;-45
2022/10/28 11:30:50;;;;;;;9.57;7.70;;;23.80;39.60;;;;;;5035649;28;20488;-47
2022/10/28 11:33:19;;;;;;;10.97;8.83;;;23.70;39.80;;;;;;5035582;28;20384;-45
2022/10/28 11:36:06;;;;;;;13.10;9.10;;;23.50;39.70;;;;;;5035100;28;20433;-46
2022/10/28 11:39:09;;;;;;;9.87;8.43;;;23.40;40.20;;;;;;5035237;28;20408;-45
2022/10/28 11:42:10;;;;;;;11.07;8.87;;;23.30;40.00;;;;;;5035395;28;20472;-45
2022/10/28 11:44:52;;;;;;;13.43;9.50;;;23.20;40.70;;;;;;5035144;28;20460;-45
2022/10/28 11:47:55;;;;;;;11.50;7.70;;;23.20;41.00;;;;;;5034697;28;20415;-45
2022/10/28 11:50:24;;;;;;;13.97;9.13;;;23.50;40.40;;;;;;4935745;29;20421;-44
2022/10/28 11:52:55;;;;;;;14.97;9.20;;;23.80;40.10;;;;;;4935528;29;20507;-46
2022/10/28 11:55:55;;;;;;;10.90;7.33;;;24.10;39.40;;;;;;4935417;29;20444;-45
2022/10/28 11:58:40;;;;;;;10.87;9.03;;;24.20;39.00;;;;;;4935458;29;20567;-44
2022/10/28 12:01:25;;;;;;;11.13;8.50;;;24.40;39.00;;;;;;4935535;29;20417;-45
2022/10/28 12:04:18;;;;;;;11.80;8.67;;;24.60;39.00;;;;;;4934762;29;20475;-46
2022/10/28 12:07:28;;;;;;;12.20;8.83;;;24.70;38.50;;;;;;4934677;29;20382;-45
2022/10/28 12:10:09;;;;;;;9.77;8.53;;;24.80;38.50;;;;;;4932367;29;20620;-45
2022/10/28 12:12:38;;;;;;;10.27;8.80;;;24.80;38.00;;;;;;4935197;29;21016;-45
2022/10/28 12:15:27;;;;;;;13.10;8.40;;;24.70;39.00;;;;;;4935068;29;20440;-45
2022/10/28 12:18:19;;;;;;;13.67;9.10;;;24.80;38.60;;;;;;4933374;29;20451;-46
2022/10/28 12:21:04;;;;;;;11.00;9.00;;;24.90;38.00;;;;;;4935026;29;20414;-46
2022/10/28 12:23:33;;;;;;;9.40;8.40;;;25.00;37.70;;;;;;4950545;28;20540;-45
2022/10/28 12:26:04;;;;;;;10.63;8.17;;;25.30;37.60;;;;;;5034111;28;20439;-45
2022/10/28 12:28:46;;;;;;;10.90;9.20;;;25.60;36.80;;;;;;5034492;28;20991;-46
2022/10/28 12:31:38;;;;;;;14.37;9.57;;;25.70;36.10;;;;;;5034437;28;20909;-45
2022/10/28 12:34:12;;;;;;;10.70;9.40;;;25.70;36.30;;;;;;5034428;28;20839;-45
2022/10/28 12:37:12;;;;;;;11.30;9.07;;;25.70;36.30;;;;;;5033853;28;20435;-46
2022/10/28 12:39:44;;;;;;;13.27;11.80;;;25.90;36.20;;;;;;5033788;28;20431;-47
2022/10/28 12:42:29;;;;;;;11.17;10.10;;;26.30;35.90;;;;;;5034603;28;20432;-45
2022/10/28 12:44:57;;;;;;;11.17;9.50;;;26.90;35.40;;;;;;5034074;28;20487;-45
2022/10/28 12:47:23;;;;;;;10.17;8.50;;;27.40;34.70;;;;;;5033622;28;20746;-46
2022/10/28 12:50:11;;;;;;;9.23;8.03;;;27.70;33.70;;;;;;5034021;28;20899;-45
2022/10/28 12:52:45;;;;;;;12.00;9.03;;;28.00;33.60;;;;;;5034218;28;20170;-45
2022/10/28 12:55:20;;;;;;;11.77;9.70;;;27.90;32.90;;;;;;5034095;28;20423;-45
2022/10/28 12:58:02;;;;;;;9.17;7.83;;;27.50;33.70;;;;;;5033485;28;20412;-46